Time;durP1;ratioP1;P1;durP2;ratioP2;P2;SDS_P1;SDS_P2;PMS_P1;PMS_P2;Temp;Humidity;BMP_temperature;BMP_pressure;BME280_temperature;BME280_humidity;BME280_pressure;Samples;Min_cycle;Max_cycle;Signal;HPM_P1;HPM_P2
2023/06/23 00:01:00;;;;;;;12.93;11.55;;;16.90;99.90;;;;;;5036828;28;20033;-79
2023/06/23 00:03:26;;;;;;;14.93;11.35;;;16.80;99.90;;;;;;5052439;28;20041;-79
2023/06/23 00:05:52;;;;;;;11.43;9.43;;;;;;;;;;5032412;28;20108;-79
2023/06/23 00:08:17;;;;;;;12.70;11.07;;;16.80;99.90;;;;;;5062881;28;20526;-79
2023/06/23 00:10:43;;;;;;;14.55;11.38;;;16.80;99.90;;;;;;5027274;28;20100;-79
2023/06/23 00:13:10;;;;;;;14.75;11.57;;;17.10;99.90;;;;;;5042047;28;20053;-79
2023/06/23 00:15:36;;;;;;;13.00;11.10;;;16.70;99.90;;;;;;5059012;28;20482;-79
2023/06/23 00:18:02;;;;;;;15.60;11.77;;;16.70;99.90;;;;;;5063390;28;20063;-78
2023/06/23 00:20:27;;;;;;;14.02;12.38;;;16.90;99.90;;;;;;5041533;28;20109;-79
2023/06/23 00:22:53;;;;;;;13.68;11.73;;;16.80;99.90;;;;;;5059366;28;20097;-78
2023/06/23 00:25:19;;;;;;;14.95;11.95;;;16.80;99.90;;;;;;5073362;28;20051;-79
2023/06/23 00:27:45;;;;;;;18.38;12.88;;;16.70;99.90;;;;;;5076181;28;20045;-79
2023/06/23 00:30:12;;;;;;;16.10;12.52;;;16.90;99.90;;;;;;5040437;28;20128;-78
2023/06/23 00:32:38;;;;;;;13.23;11.57;;;16.90;99.90;;;;;;5058756;28;20090;-78
2023/06/23 00:35:05;;;;;;;14.25;12.02;;;16.90;99.90;;;;;;5040040;28;20084;-79
2023/06/23 00:37:31;;;;;;;16.83;12.40;;;16.70;99.90;;;;;;5041922;28;20105;-79
2023/06/23 00:39:58;;;;;;;15.65;13.15;;;16.80;99.90;;;;;;5046371;28;20073;-82
2023/06/23 00:42:24;;;;;;;13.80;12.30;;;16.80;99.90;;;;;;5065415;28;20044;-80
2023/06/23 00:44:49;;;;;;;18.70;12.63;;;16.70;99.90;;;;;;5047187;28;20041;-80
2023/06/23 00:47:18;;;;;;;15.10;13.38;;;16.70;99.90;;;;;;5065828;28;20086;-80
2023/06/23 00:49:45;;;;;;;15.40;12.10;;;16.70;99.90;;;;;;5082962;28;20133;-80
2023/06/23 00:52:11;;;;;;;15.02;12.00;;;16.80;99.90;;;;;;5068004;28;20045;-80
2023/06/23 00:54:37;;;;;;;15.70;11.70;;;16.70;99.90;;;;;;5065377;28;20120;-80
2023/06/23 00:57:03;;;;;;;15.55;12.25;;;16.80;99.90;;;;;;5045692;28;20484;-80
2023/06/23 00:59:29;;;;;;;16.23;11.65;;;16.70;99.90;;;;;;5042062;28;20456;-79
2023/06/23 01:02:00;;;;;;;15.57;12.18;;;16.70;99.90;;;;;;5050437;28;20155;-79
2023/06/23 01:04:28;;;;;;;15.73;12.38;;;16.70;99.90;;;;;;5055914;28;20053;-78
2023/06/23 01:06:56;;;;;;;;;;;16.80;99.90;;;;;;5054440;28;20072;-78
2023/06/23 01:09:36;;;;;;;15.85;11.82;;;16.80;99.90;;;;;;5044925;28;20000;-78
2023/06/23 01:12:14;;;;;;;13.93;12.43;;;16.60;99.90;;;;;;5053692;28;20041;-79
2023/06/23 01:14:53;;;;;;;16.48;12.55;;;16.80;99.90;;;;;;5043898;28;20049;-78
2023/06/23 01:17:29;;;;;;;17.13;13.10;;;16.60;99.90;;;;;;5046508;28;20132;-78
2023/06/23 01:20:11;;;;;;;16.80;12.90;;;16.70;99.90;;;;;;5051366;28;20045;-79
2023/06/23 01:23:07;;;;;;;17.60;13.73;;;16.80;99.90;;;;;;5059918;28;20076;-78
2023/06/23 01:25:53;;;;;;;17.63;14.25;;;16.70;99.90;;;;;;5049354;28;20040;-78
2023/06/23 01:28:47;;;;;;;14.98;13.38;;;16.80;99.90;;;;;;5059428;28;20453;-78
2023/06/23 01:31:22;;;;;;;17.70;14.10;;;16.70;99.90;;;;;;5050405;28;20055;-78
2023/06/23 01:33:57;;;;;;;16.50;13.57;;;16.70;99.90;;;;;;5036304;28;20118;-78
2023/06/23 01:36:37;;;;;;;20.33;14.48;;;16.80;99.90;;;;;;5041256;28;20053;-78
2023/06/23 01:39:06;;;;;;;19.75;13.48;;;16.60;99.90;;;;;;5042371;28;20053;-78
2023/06/23 01:41:38;;;;;;;16.95;14.18;;;16.70;99.90;;;;;;5072736;28;20388;-78
2023/06/23 01:44:08;;;;;;;16.73;13.23;;;16.80;99.90;;;;;;5055918;28;20049;-78
2023/06/23 01:46:35;;;;;;;15.48;13.00;;;16.80;99.90;;;;;;5038243;28;20041;-78
2023/06/23 01:49:10;;;;;;;15.45;13.80;;;16.70;99.90;;;;;;5048280;28;20041;-79
2023/06/23 01:51:40;;;;;;;17.73;14.05;;;16.80;99.90;;;;;;5044225;28;20037;-80
2023/06/23 01:54:06;;;;;;;16.55;13.98;;;16.80;99.90;;;;;;5042167;28;20048;-80
2023/06/23 01:56:33;;;;;;;13.43;12.00;;;16.80;99.90;;;;;;5046849;28;20372;-80
2023/06/23 01:59:02;;;;;;;18.63;12.37;;;16.60;99.90;;;;;;5056681;28;20525;-80
2023/06/23 02:01:29;;;;;;;15.05;11.88;;;16.80;99.90;;;;;;5009131;28;20280;-80
2023/06/23 02:03:56;;;;;;;15.27;12.82;;;16.80;99.90;;;;;;5042527;28;20068;-80
2023/06/23 02:06:24;;;;;;;14.52;12.57;;;;;;;;;;5035598;28;20120;-80
2023/06/23 02:08:50;;;;;;;14.07;12.00;;;16.80;99.90;;;;;;5042039;28;20056;-79
2023/06/23 02:11:18;;;;;;;14.15;11.85;;;16.80;99.90;;;;;;5041150;28;20045;-79
2023/06/23 02:13:45;;;;;;;12.90;11.55;;;16.80;99.90;;;;;;5042465;28;20159;-78
2023/06/23 02:16:13;;;;;;;16.15;11.80;;;16.80;99.90;;;;;;5040232;28;20048;-81
2023/06/23 02:18:39;;;;;;;;;;;16.80;99.90;;;;;;5030785;28;20049;-81
2023/06/23 02:21:06;;;;;;;19.77;14.80;;;16.80;99.90;;;;;;5052263;28;19925;-80
2023/06/23 02:23:34;;;;;;;15.93;13.77;;;16.80;99.90;;;;;;5056649;28;20045;-81
2023/06/23 02:26:00;;;;;;;20.58;16.02;;;16.70;99.90;;;;;;5059464;28;20040;-81
2023/06/23 02:28:26;;;;;;;21.13;16.67;;;16.80;99.90;;;;;;5041721;28;20124;-81
2023/06/23 02:30:55;;;;;;;22.52;16.48;;;16.70;99.90;;;;;;5053323;28;20038;-81
2023/06/23 02:33:21;;;;;;;16.58;14.73;;;16.60;99.90;;;;;;5033089;28;20106;-81
2023/06/23 02:35:49;;;;;;;18.05;14.90;;;16.70;99.90;;;;;;5066339;28;20041;-79
2023/06/23 02:38:21;;;;;;;18.13;15.13;;;16.60;99.90;;;;;;5053175;28;20112;-79
2023/06/23 02:40:47;;;;;;;16.30;14.57;;;16.70;99.90;;;;;;5037246;28;20042;-80
2023/06/23 02:43:24;;;;;;;18.67;16.15;;;16.70;99.90;;;;;;5049835;28;20037;-80
2023/06/23 02:45:55;;;;;;;20.33;17.17;;;16.70;99.90;;;;;;5049400;28;20042;-81
2023/06/23 02:48:25;;;;;;;18.00;15.48;;;16.50;99.90;;;;;;5052029;28;20125;-80
2023/06/23 02:50:54;;;;;;;16.92;15.07;;;16.60;99.90;;;;;;5049692;28;20037;-80
2023/06/23 02:53:24;;;;;;;24.63;17.17;;;16.50;99.90;;;;;;5048272;28;20491;-81
2023/06/23 02:56:01;;;;;;;20.27;16.48;;;16.60;99.90;;;;;;5044283;28;20085;-80
2023/06/23 02:58:30;;;;;;;20.52;16.83;;;16.60;99.90;;;;;;5027354;28;20110;-80
2023/06/23 03:00:58;;;;;;;19.52;16.42;;;16.50;99.90;;;;;;5042742;28;20075;-80
2023/06/23 03:03:26;;;;;;;20.77;16.23;;;16.50;99.90;;;;;;5060317;28;20110;-81
2023/06/23 03:05:52;;;;;;;19.70;16.35;;;16.50;99.90;;;;;;5060064;28;20090;-80
2023/06/23 03:08:18;;;;;;;19.88;15.55;;;16.50;99.90;;;;;;5043449;28;20069;-80
2023/06/23 03:10:44;;;;;;;20.17;16.17;;;16.50;99.90;;;;;;5056371;28;20047;-81
2023/06/23 03:13:10;;;;;;;18.35;14.45;;;16.50;99.90;;;;;;5057895;28;20040;-80
2023/06/23 03:15:36;;;;;;;19.50;14.90;;;16.40;99.90;;;;;;5041275;28;20107;-80
2023/06/23 03:18:12;;;;;;;16.42;14.55;;;16.50;99.90;;;;;;5046312;28;20087;-80
2023/06/23 03:20:50;;;;;;;20.48;15.23;;;16.40;99.90;;;;;;5059542;28;20083;-80
2023/06/23 03:23:17;;;;;;;17.88;14.77;;;16.30;99.90;;;;;;5040312;28;20376;-79
2023/06/23 03:25:47;;;;;;;18.30;15.15;;;16.40;99.90;;;;;;5046825;28;20422;-81
2023/06/23 03:28:18;;;;;;;15.85;13.98;;;16.30;99.90;;;;;;5051687;28;20037;-82
2023/06/23 03:30:47;;;;;;;17.85;14.02;;;16.40;99.90;;;;;;5055083;28;20600;-81
2023/06/23 03:33:25;;;;;;;16.20;14.43;;;16.40;99.90;;;;;;5053301;28;20053;-82
2023/06/23 03:35:52;;;;;;;16.90;14.68;;;16.40;99.90;;;;;;5037033;28;20069;-82
2023/06/23 03:38:22;;;;;;;16.67;14.85;;;16.40;99.90;;;;;;5054785;28;20498;-81
2023/06/23 03:40:54;;;;;;;17.00;15.20;;;16.40;99.90;;;;;;5039550;28;20159;-81
2023/06/23 03:43:53;;;;;;;18.90;15.85;;;16.30;99.90;;;;;;5019917;28;20051;-81
2023/06/23 03:46:24;;;;;;;20.20;16.80;;;16.30;99.90;;;;;;5052101;28;20055;-79
2023/06/23 03:48:54;;;;;;;19.23;16.73;;;16.30;99.90;;;;;;5053434;28;20096;-78
2023/06/23 03:51:21;;;;;;;19.33;17.30;;;16.30;99.90;;;;;;5036947;28;20106;-78
2023/06/23 03:53:49;;;;;;;20.92;17.25;;;16.40;99.90;;;;;;5050328;28;20396;-78
2023/06/23 03:56:16;;;;;;;21.02;18.00;;;16.30;99.90;;;;;;5045999;28;20098;-78
2023/06/23 03:58:44;;;;;;;19.00;16.98;;;16.30;99.90;;;;;;5048897;28;20037;-78
2023/06/23 04:01:10;;;;;;;22.27;17.27;;;16.50;99.90;;;;;;5015875;28;20052;-78
2023/06/23 04:03:37;;;;;;;22.20;17.83;;;16.40;99.90;;;;;;5030063;28;20079;-78
2023/06/23 04:06:06;;;;;;;20.60;18.00;;;16.40;99.90;;;;;;5029440;28;20399;-78
2023/06/23 04:08:34;;;;;;;19.60;17.15;;;16.40;99.90;;;;;;5047615;28;20808;-78
2023/06/23 04:11:01;;;;;;;23.63;18.45;;;16.40;99.90;;;;;;5050370;28;20067;-78
2023/06/23 04:13:28;;;;;;;21.55;16.25;;;16.40;99.90;;;;;;5033097;28;20045;-78
2023/06/23 04:15:57;;;;;;;22.30;17.50;;;16.40;99.90;;;;;;5048507;28;20069;-78
2023/06/23 04:18:26;;;;;;;26.02;17.48;;;16.50;99.90;;;;;;5047953;28;20120;-78
2023/06/23 04:20:55;;;;;;;19.88;17.33;;;16.40;99.90;;;;;;5014430;28;20087;-79
2023/06/23 04:23:23;;;;;;;21.25;17.58;;;16.50;99.90;;;;;;5053108;28;20064;-79
2023/06/23 04:25:51;;;;;;;21.08;17.27;;;16.40;99.90;;;;;;5050015;28;20052;-79
2023/06/23 04:28:19;;;;;;;23.27;17.45;;;16.40;99.90;;;;;;5031497;28;20037;-78
2023/06/23 04:30:46;;;;;;;20.13;16.40;;;16.50;99.90;;;;;;5056113;28;20213;-78
2023/06/23 04:33:12;;;;;;;20.58;16.65;;;16.50;99.90;;;;;;5032789;28;20045;-78
2023/06/23 04:35:38;;;;;;;20.02;17.75;;;16.50;99.90;;;;;;5036363;28;20092;-78
2023/06/23 04:38:11;;;;;;;20.48;16.17;;;16.50;99.90;;;;;;5047406;28;20541;-78
2023/06/23 04:40:47;;;;;;;18.35;16.27;;;16.60;99.90;;;;;;5034234;28;20080;-78
2023/06/23 04:43:16;;;;;;;19.10;16.40;;;16.60;99.90;;;;;;5047552;28;20049;-78
2023/06/23 04:45:50;;;;;;;19.40;16.27;;;16.60;99.90;;;;;;5033920;28;20411;-78
2023/06/23 04:48:21;;;;;;;18.58;16.13;;;16.70;99.90;;;;;;5054470;28;20491;-77
2023/06/23 04:50:48;;;;;;;17.48;15.77;;;16.70;99.90;;;;;;5050788;28;20390;-77
2023/06/23 04:53:20;;;;;;;18.38;16.48;;;16.70;99.90;;;;;;5051522;28;20045;-78
2023/06/23 04:55:53;;;;;;;18.77;16.77;;;16.80;99.90;;;;;;5052112;28;20053;-78
2023/06/23 04:58:21;;;;;;;18.10;16.02;;;16.80;99.90;;;;;;5045624;28;20075;-78
2023/06/23 05:00:49;;;;;;;18.40;16.27;;;16.80;99.90;;;;;;5013071;28;20163;-78
2023/06/23 05:03:17;;;;;;;18.90;15.93;;;16.80;99.90;;;;;;5032495;28;20049;-77
2023/06/23 05:05:45;;;;;;;18.20;15.40;;;16.80;99.90;;;;;;5043607;28;20041;-78
2023/06/23 05:08:13;;;;;;;23.50;15.52;;;16.90;99.90;;;;;;5047788;28;20124;-78
2023/06/23 05:10:40;;;;;;;17.17;15.13;;;17.00;99.90;;;;;;5049913;28;20125;-78
2023/06/23 05:13:09;;;;;;;19.88;14.85;;;17.00;99.90;;;;;;5029529;28;20048;-78
2023/06/23 05:15:34;;;;;;;18.75;15.45;;;16.90;99.90;;;;;;5028451;28;20075;-78
2023/06/23 05:18:02;;;;;;;18.73;14.30;;;17.00;99.90;;;;;;5050792;28;20467;-78
2023/06/23 05:20:30;;;;;;;19.33;15.50;;;17.00;99.90;;;;;;5050641;28;20065;-78
2023/06/23 05:23:02;;;;;;;16.10;14.40;;;17.10;99.90;;;;;;5042180;28;20595;-79
2023/06/23 05:25:30;;;;;;;16.55;14.65;;;17.10;99.90;;;;;;5036696;28;20044;-78
2023/06/23 05:28:00;;;;;;;15.82;14.13;;;17.10;99.90;;;;;;5048245;28;20136;-78
2023/06/23 05:30:27;;;;;;;15.95;14.35;;;17.10;99.90;;;;;;5048596;28;20402;-78
2023/06/23 05:32:56;;;;;;;15.25;13.75;;;17.10;99.90;;;;;;5028380;28;20076;-78
2023/06/23 05:35:24;;;;;;;17.60;14.18;;;17.20;99.90;;;;;;5043734;28;20407;-78
2023/06/23 05:37:51;;;;;;;17.08;14.48;;;17.20;99.90;;;;;;5060090;28;20417;-77
2023/06/23 05:40:17;;;;;;;19.77;14.15;;;17.20;99.90;;;;;;5037292;28;20122;-78
2023/06/23 05:42:43;;;;;;;15.90;14.20;;;17.30;99.90;;;;;;5044783;28;20108;-77
2023/06/23 05:45:10;;;;;;;14.98;13.45;;;17.30;99.90;;;;;;5075751;28;20056;-77
2023/06/23 05:47:53;;;;;;;17.20;14.48;;;17.30;99.90;;;;;;5060662;28;20487;-78
2023/06/23 05:50:29;;;;;;;14.65;12.98;;;17.30;99.90;;;;;;5055578;28;20047;-77
2023/06/23 05:53:07;;;;;;;15.25;13.73;;;17.40;99.90;;;;;;5038258;28;20052;-77
2023/06/23 05:55:49;;;;;;;15.68;13.48;;;17.50;99.90;;;;;;5069088;28;20048;-78
2023/06/23 05:58:17;;;;;;;14.23;12.85;;;17.50;99.90;;;;;;5008742;28;20068;-78
2023/06/23 06:00:50;;;;;;;14.63;12.93;;;17.60;99.90;;;;;;5047031;28;20474;-78
2023/06/23 06:03:20;;;;;;;16.00;12.43;;;17.60;99.90;;;;;;5029932;28;20051;-78
2023/06/23 06:05:51;;;;;;;13.88;11.93;;;17.70;99.90;;;;;;5049524;28;20499;-78
2023/06/23 06:08:19;;;;;;;15.23;13.45;;;17.90;99.90;;;;;;5068311;28;20107;-78
2023/06/23 06:10:46;;;;;;;15.25;12.95;;;17.90;99.90;;;;;;5065153;28;20041;-78
2023/06/23 06:13:14;;;;;;;15.30;12.95;;;;;;;;;;5038100;28;20049;-78
2023/06/23 06:15:43;;;;;;;15.32;12.23;;;18.30;99.90;;;;;;5019067;28;20045;-78
2023/06/23 06:18:09;;;;;;;15.63;12.52;;;18.10;99.90;;;;;;5030266;28;20088;-78
2023/06/23 06:20:36;;;;;;;13.77;12.38;;;18.10;99.90;;;;;;5038797;28;20069;-78
2023/06/23 06:23:05;;;;;;;14.25;12.55;;;18.10;99.90;;;;;;5041846;28;20038;-79
2023/06/23 06:25:33;;;;;;;15.13;12.23;;;18.20;99.90;;;;;;5058035;28;20101;-79
2023/06/23 06:27:59;;;;;;;15.27;12.50;;;18.10;99.90;;;;;;5052958;28;20494;-80
2023/06/23 06:30:26;;;;;;;18.10;13.23;;;18.30;99.90;;;;;;5030052;28;20052;-79
2023/06/23 06:32:53;;;;;;;17.98;13.93;;;18.40;99.90;;;;;;5043759;28;20052;-79
2023/06/23 06:35:20;;;;;;;;;;;18.60;99.90;;;;;;5061799;28;20040;-79
2023/06/23 06:37:47;;;;;;;24.00;19.30;;;19.60;99.90;;;;;;5058934;28;20294;-79
2023/06/23 06:40:15;;;;;;;;;;;21.00;99.90;;;;;;5050550;28;20067;-78
2023/06/23 06:42:41;;;;;;;18.50;16.73;;;22.10;99.90;;;;;;5049946;28;20343;-79
2023/06/23 06:45:07;;;;;;;13.05;11.52;;;23.40;99.90;;;;;;5027933;28;20080;-78
2023/06/23 06:47:40;;;;;;;12.23;11.02;;;23.90;99.90;;;;;;5031942;28;20708;-79
2023/06/23 06:50:08;;;;;;;12.27;10.80;;;24.60;99.90;;;;;;5061693;28;20049;-79
2023/06/23 06:52:36;;;;;;;10.75;9.57;;;25.10;99.90;;;;;;5080306;28;20098;-81
2023/06/23 06:55:03;;;;;;;12.77;9.63;;;25.20;99.90;;;;;;5055343;28;20053;-82
2023/06/23 06:57:30;;;;;;;10.35;9.40;;;25.80;99.90;;;;;;5070147;28;20047;-81
2023/06/23 06:59:55;;;;;;;10.68;9.57;;;26.30;99.90;;;;;;5049117;28;20056;-80
2023/06/23 07:02:21;;;;;;;9.18;8.27;;;26.70;99.90;;;;;;5064663;28;20079;-82
2023/06/23 07:04:47;;;;;;;8.82;7.97;;;27.00;99.90;;;;;;5062593;28;20041;-81
2023/06/23 07:07:14;;;;;;;9.30;8.23;;;27.40;99.90;;;;;;5041709;28;20053;-79
2023/06/23 07:09:40;;;;;;;9.65;8.18;;;27.50;99.90;;;;;;5040430;28;20052;-81
2023/06/23 07:12:06;;;;;;;9.70;7.78;;;27.30;99.90;;;;;;5054307;28;20041;-82
2023/06/23 07:14:32;;;;;;;7.80;7.00;;;27.30;99.90;;;;;;5045366;28;20049;-81
2023/06/23 07:16:58;;;;;;;7.70;6.90;;;27.40;99.90;;;;;;5063465;28;20047;-82
2023/06/23 07:19:23;;;;;;;7.88;6.40;;;27.30;99.90;;;;;;5039543;28;20055;-81
2023/06/23 07:21:49;;;;;;;7.30;6.43;;;27.00;99.90;;;;;;5058883;28;20048;-82
2023/06/23 07:24:15;;;;;;;7.28;6.47;;;27.20;99.90;;;;;;5018261;28;20561;-81
2023/06/23 07:26:40;;;;;;;7.88;6.97;;;27.30;99.90;;;;;;5050202;28;20052;-81
2023/06/23 07:29:06;;;;;;;7.40;6.45;;;27.30;99.90;;;;;;5053190;28;20037;-81
2023/06/23 07:31:35;;;;;;;7.38;6.03;;;27.20;99.90;;;;;;5031066;28;20068;-84
2023/06/23 07:34:00;;;;;;;7.43;6.70;;;27.10;99.90;;;;;;5049173;28;20068;-80
2023/06/23 07:36:26;;;;;;;9.00;6.22;;;26.70;99.90;;;;;;5053632;28;20052;-81
2023/06/23 07:38:52;;;;;;;7.22;6.25;;;26.70;99.90;;;;;;5052353;28;20515;-83
2023/06/23 07:41:17;;;;;;;7.68;6.00;;;26.90;99.90;;;;;;5053641;28;20064;-83
2023/06/23 07:43:43;;;;;;;7.35;5.90;;;26.90;99.90;;;;;;5036212;28;20060;-83
2023/06/23 07:46:10;;;;;;;8.82;6.10;;;26.90;99.90;;;;;;5053887;28;20175;-82
2023/06/23 07:48:35;;;;;;;7.90;6.07;;;26.60;99.90;;;;;;5034961;28;20033;-82
2023/06/23 07:51:02;;;;;;;7.32;6.07;;;26.10;99.90;;;;;;5056186;28;20048;-82
2023/06/23 07:53:27;;;;;;;6.67;5.37;;;25.70;99.90;;;;;;5038384;28;20053;-82
2023/06/23 07:55:53;;;;;;;7.85;5.35;;;25.40;99.90;;;;;;5053207;28;20052;-83
2023/06/23 07:58:19;;;;;;;6.43;5.63;;;25.40;99.90;;;;;;5037591;28;20061;-82
2023/06/23 08:00:46;;;;;;;5.88;5.15;;;;;;;;;;5046291;28;20123;-83
2023/06/23 08:03:12;;;;;;;6.50;5.28;;;24.70;99.90;;;;;;5054614;28;20045;-82
2023/06/23 08:05:38;;;;;;;7.03;6.07;;;24.60;99.90;;;;;;5054920;28;20056;-84
2023/06/23 08:08:04;;;;;;;7.18;5.10;;;24.60;99.90;;;;;;5033983;28;20064;-82
2023/06/23 08:10:30;;;;;;;7.78;5.70;;;24.00;99.90;;;;;;5056345;28;20479;-83
2023/06/23 08:12:56;;;;;;;7.88;5.82;;;23.90;99.90;;;;;;5052330;28;20120;-82
2023/06/23 08:15:23;;;;;;;7.93;6.30;;;24.10;99.90;;;;;;5036802;28;20041;-82
2023/06/23 08:17:49;;;;;;;14.25;8.18;;;24.20;99.90;;;;;;5053078;28;20087;-82
2023/06/23 08:20:15;;;;;;;8.77;6.25;;;24.40;99.90;;;;;;5038678;28;20450;-83
2023/06/23 08:22:40;;;;;;;6.70;5.10;;;24.50;99.90;;;;;;5039450;28;20061;-82
2023/06/23 08:25:07;;;;;;;5.82;5.18;;;24.20;99.90;;;;;;5053133;28;20072;-82
2023/06/23 08:27:33;;;;;;;7.18;5.63;;;24.20;99.90;;;;;;5050407;28;20051;-83
2023/06/23 08:29:59;;;;;;;8.02;4.88;;;24.30;99.90;;;;;;5051579;28;20075;-83
2023/06/23 08:32:25;;;;;;;6.60;5.35;;;24.30;99.90;;;;;;5055176;28;20506;-82
2023/06/23 08:34:51;;;;;;;6.70;5.93;;;24.40;99.90;;;;;;5036985;28;20047;-82
2023/06/23 08:37:16;;;;;;;9.60;5.82;;;24.50;99.90;;;;;;5041936;28;20044;-83
2023/06/23 08:39:42;;;;;;;7.60;5.82;;;24.50;99.90;;;;;;5040162;28;20601;-83
2023/06/23 08:42:08;;;;;;;6.32;5.22;;;24.50;99.90;;;;;;5053075;28;20045;-83
2023/06/23 08:44:37;;;;;;;5.50;5.05;;;24.70;99.90;;;;;;5056099;28;20037;-83
2023/06/23 08:47:04;;;;;;;5.68;5.18;;;24.70;99.90;;;;;;5051476;28;20119;-83
2023/06/23 08:49:34;;;;;;;5.95;4.78;;;24.80;99.90;;;;;;5035584;28;20064;-84
2023/06/23 08:52:01;;;;;;;4.93;4.43;;;24.90;99.90;;;;;;5048110;28;20099;-84
2023/06/23 08:54:27;;;;;;;;;;;24.80;99.90;;;;;;5057897;28;20036;-84
2023/06/23 08:56:53;;;;;;;5.47;4.97;;;24.80;99.90;;;;;;5027377;28;19921;-84
2023/06/23 08:59:20;;;;;;;5.45;4.95;;;24.80;99.90;;;;;;5052466;28;20167;-84
2023/06/23 09:01:45;;;;;;;6.10;4.87;;;24.90;99.90;;;;;;5055136;28;20033;-84
2023/06/23 09:04:11;;;;;;;5.30;3.80;;;25.00;99.90;;;;;;5054070;28;20373;-84
2023/06/23 09:06:37;;;;;;;5.47;4.00;;;25.20;99.90;;;;;;5038181;28;20380;-83
2023/06/23 09:09:02;;;;;;;8.80;4.05;;;25.00;99.90;;;;;;5034000;28;20045;-84
2023/06/23 09:11:28;;;;;;;5.80;4.00;;;25.30;99.90;;;;;;5052086;28;20049;-83
2023/06/23 09:13:56;;;;;;;4.97;3.97;;;25.20;99.90;;;;;;5057761;28;20120;-84
2023/06/23 09:16:23;;;;;;;4.18;3.78;;;25.30;99.90;;;;;;5058976;28;20032;-85
2023/06/23 09:18:51;;;;;;;4.22;3.75;;;25.50;99.90;;;;;;5053720;28;20517;-83
2023/06/23 09:21:17;;;;;;;4.40;3.97;;;25.30;99.90;;;;;;5049439;28;20073;-84
2023/06/23 09:24:03;;;;;;;3.87;3.57;;;25.40;99.90;;;;;;5065445;28;20040;-84
2023/06/23 09:26:29;;;;;;;5.65;3.67;;;25.40;99.90;;;;;;5043922;28;20338;-84
2023/06/23 09:29:15;;;;;;;4.05;3.58;;;25.20;99.90;;;;;;5062728;28;20041;-83
2023/06/23 09:31:41;;;;;;;4.20;3.80;;;24.70;99.90;;;;;;5047999;28;20101;-84
2023/06/23 09:34:07;;;;;;;3.70;3.38;;;25.30;99.90;;;;;;5039631;28;20047;-84
2023/06/23 09:36:34;;;;;;;3.75;3.42;;;25.50;99.90;;;;;;5052733;28;20045;-83
2023/06/23 09:39:01;;;;;;;5.68;3.60;;;25.70;99.90;;;;;;5048661;28;20047;-86
2023/06/23 09:41:31;;;;;;;5.35;3.13;;;25.80;99.90;;;;;;5049922;28;20084;-84
2023/06/23 09:43:58;;;;;;;3.20;2.90;;;25.60;99.90;;;;;;5020831;28;20079;-81
2023/06/23 09:46:26;;;;;;;3.70;3.25;;;25.70;99.90;;;;;;5055510;28;20108;-82
2023/06/23 09:48:53;;;;;;;4.35;3.30;;;25.50;99.90;;;;;;5055425;28;20039;-83
2023/06/23 09:51:19;;;;;;;4.72;3.35;;;25.80;99.90;;;;;;5051627;28;20119;-83
2023/06/23 09:53:46;;;;;;;3.38;3.08;;;25.80;99.90;;;;;;5033624;28;20036;-83
2023/06/23 09:56:18;;;;;;;5.15;3.25;;;26.00;99.90;;;;;;5033721;28;20071;-85
2023/06/23 09:58:45;;;;;;;3.03;2.72;;;26.20;99.90;;;;;;5050841;28;20032;-83
2023/06/23 10:01:15;;;;;;;3.05;2.75;;;26.20;99.90;;;;;;5057091;28;20045;-83
2023/06/23 10:03:52;;;;;;;3.22;2.40;;;26.10;99.90;;;;;;5061172;28;20056;-83
2023/06/23 10:06:21;;;;;;;3.83;3.03;;;26.20;99.90;;;;;;5036522;28;20033;-83
2023/06/23 10:08:47;;;;;;;3.60;3.08;;;26.20;99.90;;;;;;5041303;28;20061;-83
2023/06/23 10:11:17;;;;;;;4.57;2.90;;;26.20;99.90;;;;;;5037645;28;20048;-81
2023/06/23 10:13:45;;;;;;;3.80;3.40;;;26.40;99.90;;;;;;5051833;28;20112;-82
2023/06/23 10:16:11;;;;;;;3.65;3.20;;;26.50;99.90;;;;;;5049399;28;20033;-82
2023/06/23 10:18:37;;;;;;;3.83;3.17;;;26.50;99.90;;;;;;5039465;28;20063;-82
2023/06/23 10:21:03;;;;;;;3.60;2.63;;;26.30;99.90;;;;;;5017779;28;20418;-82
2023/06/23 10:23:31;;;;;;;4.03;2.93;;;25.90;99.90;;;;;;5037815;28;20118;-81
2023/06/23 10:25:58;;;;;;;4.40;3.20;;;26.20;99.90;;;;;;5050123;28;20083;-81
2023/06/23 10:28:27;;;;;;;4.55;3.35;;;26.40;99.90;;;;;;5053760;28;20053;-82
2023/06/23 10:30:53;;;;;;;4.70;3.00;;;26.40;99.90;;;;;;5049843;28;20051;-82
2023/06/23 10:33:21;;;;;;;3.53;3.23;;;26.50;99.90;;;;;;5032626;28;20033;-82
2023/06/23 10:35:48;;;;;;;3.53;3.22;;;26.00;99.90;;;;;;5053354;28;20454;-81
2023/06/23 10:38:26;;;;;;;3.92;3.20;;;25.80;99.90;;;;;;5041060;28;20044;-82
2023/06/23 10:40:54;;;;;;;3.42;3.00;;;25.70;99.90;;;;;;5028728;28;20041;-82
2023/06/23 10:43:21;;;;;;;5.55;2.60;;;26.00;99.90;;;;;;5055932;28;20053;-82
2023/06/23 10:45:47;;;;;;;;;;;26.10;99.90;;;;;;5030043;28;20194;-81
2023/06/23 10:48:14;;;;;;;3.30;2.72;;;26.40;99.90;;;;;;5055160;28;19971;-82
2023/06/23 10:50:40;;;;;;;3.13;2.67;;;26.40;99.90;;;;;;5057764;28;20077;-82
2023/06/23 10:53:10;;;;;;;2.73;2.53;;;26.50;99.90;;;;;;5041799;28;20069;-82
2023/06/23 10:55:40;;;;;;;3.20;2.90;;;26.80;99.90;;;;;;5041124;28;20303;-82
2023/06/23 10:58:10;;;;;;;4.10;2.67;;;26.90;99.90;;;;;;5040156;28;20067;-82
2023/06/23 11:00:35;;;;;;;4.22;2.80;;;26.40;99.70;;;;;;5060554;28;20047;-82
2023/06/23 11:03:04;;;;;;;3.38;3.00;;;26.20;99.90;;;;;;5038940;28;20049;-82
2023/06/23 11:05:30;;;;;;;2.75;2.55;;;26.60;99.90;;;;;;5047131;28;20074;-81
2023/06/23 11:08:00;;;;;;;4.32;3.05;;;26.90;99.90;;;;;;5053988;28;20056;-82
2023/06/23 11:10:49;;;;;;;3.60;2.72;;;27.10;99.90;;;;;;5042306;28;20079;-81
2023/06/23 11:13:15;;;;;;;3.53;3.22;;;27.00;98.80;;;;;;5054838;28;20037;-82
2023/06/23 11:15:51;;;;;;;3.58;3.28;;;26.70;99.00;;;;;;5063641;28;20491;-82
2023/06/23 11:18:20;;;;;;;3.47;3.17;;;;;;;;;;5073143;28;20109;-82
2023/06/23 11:20:46;;;;;;;3.47;3.17;;;26.70;99.90;;;;;;5060376;28;20063;-82
2023/06/23 11:23:13;;;;;;;5.30;3.10;;;26.80;99.90;;;;;;5026805;28;20041;-83
2023/06/23 11:25:46;;;;;;;4.32;3.13;;;27.10;99.90;;;;;;5055916;28;20037;-82
2023/06/23 11:28:40;;;;;;;4.03;3.05;;;27.20;99.40;;;;;;5041820;28;20545;-85
2023/06/23 11:31:27;;;;;;;3.60;3.30;;;27.50;99.30;;;;;;5052461;28;20460;-82
2023/06/23 11:34:00;;;;;;;3.38;3.10;;;27.70;99.90;;;;;;5051941;28;20068;-82
2023/06/23 11:36:28;;;;;;;3.75;3.42;;;27.60;99.90;;;;;;5058421;28;20029;-83
2023/06/23 11:38:57;;;;;;;5.68;3.13;;;27.40;99.90;;;;;;5040984;28;20041;-82
2023/06/23 11:41:33;;;;;;;3.40;3.10;;;27.50;99.90;;;;;;5050527;28;20112;-82
2023/06/23 11:44:00;;;;;;;4.15;3.17;;;27.00;99.50;;;;;;5025817;28;20127;-82
2023/06/23 11:46:27;;;;;;;3.55;2.97;;;27.10;99.80;;;;;;5038492;28;20511;-81
2023/06/23 11:48:53;;;;;;;4.32;3.03;;;27.00;98.40;;;;;;5020919;28;20110;-81
2023/06/23 11:51:21;;;;;;;3.25;2.95;;;27.00;99.60;;;;;;5039749;28;20124;-82
2023/06/23 11:53:49;;;;;;;3.40;2.97;;;26.50;99.60;;;;;;5037234;28;20049;-81
2023/06/23 11:56:19;;;;;;;8.57;3.38;;;26.50;99.90;;;;;;5052155;28;20041;-79
2023/06/23 11:58:55;;;;;;;6.10;3.20;;;26.70;99.90;;;;;;5054427;28;20033;-79
2023/06/23 12:01:21;;;;;;;6.15;3.53;;;26.90;99.90;;;;;;5049789;28;20033;-83
2023/06/23 12:03:52;;;;;;;4.82;3.45;;;27.10;99.90;;;;;;5031492;28;20049;-79
2023/06/23 12:06:19;;;;;;;9.82;3.20;;;27.00;99.90;;;;;;5042484;28;20519;-78
2023/06/23 12:08:51;;;;;;;7.28;3.40;;;27.00;99.90;;;;;;5047675;28;20102;-78
2023/06/23 12:11:20;;;;;;;7.97;3.00;;;27.20;99.90;;;;;;5057797;28;20080;-79
2023/06/23 12:13:50;;;;;;;9.95;3.08;;;27.30;99.90;;;;;;5042115;28;20055;-79
2023/06/23 12:16:16;;;;;;;3.17;2.88;;;27.50;99.70;;;;;;5023586;28;20044;-79
2023/06/23 12:18:49;;;;;;;3.75;2.83;;;27.50;99.50;;;;;;5059000;28;20042;-80
2023/06/23 12:21:17;;;;;;;4.93;2.90;;;27.70;99.80;;;;;;5042001;28;20048;-79
2023/06/23 12:23:45;;;;;;;;;;;27.50;99.60;;;;;;5039304;28;20411;-79
2023/06/23 12:26:12;;;;;;;5.65;2.80;;;27.20;99.70;;;;;;5042625;28;20038;-79
2023/06/23 12:28:38;;;;;;;2.80;2.60;;;27.30;98.90;;;;;;5040590;28;20060;-79
2023/06/23 12:31:04;;;;;;;4.75;2.60;;;27.30;99.40;;;;;;5055678;28;20037;-79
2023/06/23 12:33:32;;;;;;;7.55;3.25;;;27.40;98.70;;;;;;5059541;28;20045;-79
2023/06/23 12:36:02;;;;;;;3.28;2.78;;;27.40;98.60;;;;;;5039753;28;20052;-78
2023/06/23 12:38:28;;;;;;;4.40;3.50;;;27.50;98.50;;;;;;5025013;28;20052;-79
2023/06/23 12:40:54;;;;;;;5.78;3.15;;;27.50;98.60;;;;;;5054900;28;20041;-77
2023/06/23 12:43:21;;;;;;;4.53;3.20;;;27.70;98.80;;;;;;5055179;28;20070;-82
2023/06/23 12:45:53;;;;;;;3.15;2.92;;;27.50;98.50;;;;;;5065383;28;20041;-79
2023/06/23 12:48:23;;;;;;;4.38;2.85;;;27.50;97.90;;;;;;5021855;28;20041;-81